Hull, Texas
Current Conditions -  °F | °C
As of 4:15 AM on Sunday 25 Jan 2015 (Local Time) from KBMT Reporting Station
Clear Clear  
Wind Chill: 39°   Ceiling: Unl
Heat Index: 42°   Visibility: 10mi
Dew Point: 42°   Wind: 5mph
Humidity: 97%   Direction: 220°SW
Pressure: 30.04"   Gusts: NA
Location:  30.15°N, 94.64°W
Report Text: KBMT 251015Z AUTO 22004KT 10SM CLR 06/05 A3004 RMK AO2 T00570053
Loading
Personal Weather Stations






























Interactive Weather Map New forecast layout! Learn more

10-Day Weather Forecast

Advertisements
Track Severe Weather on mobile